Time;durP1;ratioP1;P1;durP2;ratioP2;P2;SDS_P1;SDS_P2;PMS_P1;PMS_P2;Temp;Humidity;BMP_temperature;BMP_pressure;BME280_temperature;BME280_humidity;BME280_pressure;Samples;Min_cycle;Max_cycle;Signal;HPM_P1;HPM_P2
2023/09/05 00:02:24;;;;;;;8.40;7.50;;;;;;;17.05;100.00;101638.45;107353;1246;58981;-71
2023/09/05 00:04:59;;;;;;;11.70;8.40;;;;;;;17.06;100.00;101639.98;107313;1241;60237;-74
2023/09/05 00:07:28;;;;;;;10.10;8.30;;;;;;;17.07;100.00;101643.21;107382;1241;73994;-71
2023/09/05 00:09:58;;;;;;;11.20;8.00;;;;;;;17.06;100.00;101648.89;107347;1241;71563;-72
2023/09/05 00:12:27;;;;;;;10.40;8.10;;;;;;;17.05;100.00;101649.42;107352;1245;60319;-72
2023/09/05 00:14:56;;;;;;;9.30;7.60;;;;;;;17.02;100.00;101648.92;107359;1244;63025;-76
2023/09/05 00:17:25;;;;;;;9.70;7.60;;;;;;;17.01;100.00;101653.08;107220;1244;57475;-72
2023/09/05 00:19:55;;;;;;;13.10;7.80;;;;;;;17.00;100.00;101652.14;107289;1244;57388;-73
2023/09/05 00:22:24;;;;;;;11.20;7.40;;;;;;;16.96;100.00;101650.81;107419;1251;62885;-72
2023/09/05 00:24:53;;;;;;;11.00;6.90;;;;;;;16.93;100.00;101648.97;107370;1254;71927;-72
2023/09/05 00:27:21;;;;;;;10.10;7.70;;;;;;;16.88;100.00;101644.98;107123;1241;375069;-72
2023/09/05 00:29:50;;;;;;;8.40;7.20;;;;;;;16.86;100.00;101645.67;107401;1245;64548;-73
2023/09/05 00:32:19;;;;;;;10.20;7.60;;;;;;;16.84;100.00;101645.19;107476;1244;57592;-73
2023/09/05 00:34:48;;;;;;;11.00;7.70;;;;;;;16.80;100.00;101649.90;107499;1251;57410;-71
2023/09/05 00:37:22;;;;;;;8.20;7.00;;;;;;;16.78;100.00;101651.85;107499;1244;62763;-74
2023/09/05 00:39:51;;;;;;;13.40;8.70;;;;;;;16.76;100.00;101652.92;107473;1244;61425;-74
2023/09/05 00:42:20;;;;;;;8.40;6.60;;;;;;;16.72;100.00;101654.65;107361;1254;67687;-71
2023/09/05 00:44:49;;;;;;;8.00;6.90;;;;;;;16.69;100.00;101654.33;107466;1254;73615;-72
2023/09/05 00:47:22;;;;;;;11.10;7.40;;;;;;;16.64;100.00;101650.67;107420;1245;61443;-72
2023/09/05 00:49:51;;;;;;;10.80;7.70;;;;;;;16.61;100.00;101652.35;107474;1244;60763;-72
2023/09/05 00:52:19;;;;;;;8.40;7.00;;;;;;;16.55;100.00;101650.05;107399;1244;73984;-73
2023/09/05 00:54:48;;;;;;;9.90;7.90;;;;;;;16.52;100.00;101648.00;107367;1253;61873;-73
2023/09/05 00:57:17;;;;;;;9.90;7.70;;;;;;;16.47;100.00;101647.52;107373;1241;59356;-72
2023/09/05 00:59:47;;;;;;;9.80;7.20;;;;;;;16.42;100.00;101650.22;107467;1249;73090;-72
2023/09/05 01:02:16;;;;;;;9.50;7.60;;;;;;;16.40;100.00;101650.23;107492;1245;59400;-72
2023/09/05 01:04:45;;;;;;;9.30;7.30;;;;;;;16.33;100.00;101648.27;107398;1245;59051;-72
2023/09/05 01:07:52;;;;;;;9.40;7.60;;;;;;;16.30;100.00;101646.67;107541;1242;71110;-72
2023/09/05 01:10:37;;;;;;;9.90;7.10;;;;;;;16.24;100.00;101647.62;107385;1244;60872;-72
2023/09/05 01:13:07;;;;;;;9.50;7.00;;;;;;;16.21;100.00;101651.61;107438;1241;70359;-73
2023/09/05 01:15:35;;;;;;;8.20;7.30;;;;;;;16.19;100.00;101650.93;107408;1246;74332;-72
2023/09/05 01:18:04;;;;;;;8.50;7.20;;;;;;;16.15;100.00;101652.55;107455;1244;59017;-72
2023/09/05 01:20:45;;;;;;;8.80;7.20;;;;;;;16.12;100.00;101649.13;107450;1252;58758;-72
2023/09/05 01:23:20;;;;;;;8.70;6.70;;;;;;;16.11;100.00;101647.48;107433;1241;62737;-73
2023/09/05 01:25:50;;;;;;;9.90;7.10;;;;;;;16.09;100.00;101649.55;107426;1244;60977;-72
2023/09/05 01:28:23;;;;;;;11.10;6.70;;;;;;;16.13;100.00;101653.14;107418;1241;61340;-72
2023/09/05 01:30:51;;;;;;;10.30;6.60;;;;;;;16.10;100.00;101652.50;107301;1250;73814;-72
2023/09/05 01:33:20;;;;;;;7.10;6.30;;;;;;;16.05;100.00;101654.82;107411;1244;62273;-72
2023/09/05 01:35:49;;;;;;;8.40;6.70;;;;;;;16.03;100.00;101653.79;107400;1242;58915;-72
2023/09/05 01:38:18;;;;;;;8.50;6.30;;;;;;;16.00;100.00;101657.15;107436;1241;71238;-72
2023/09/05 01:40:47;;;;;;;8.80;6.20;;;;;;;16.02;100.00;101658.41;107452;1252;71651;-72
2023/09/05 01:43:16;;;;;;;7.80;6.60;;;;;;;15.99;100.00;101661.95;107426;1241;71800;-72
2023/09/05 01:45:45;;;;;;;9.60;6.40;;;;;;;15.93;100.00;101664.25;107411;1244;73580;-73
2023/09/05 01:48:13;;;;;;;7.80;6.10;;;;;;;15.89;100.00;101669.46;107404;1244;62384;-73
2023/09/05 01:50:42;;;;;;;9.60;6.70;;;;;;;15.84;100.00;101668.08;107395;1244;58327;-71
2023/09/05 01:53:11;;;;;;;8.60;6.60;;;;;;;15.83;100.00;101668.86;107404;1241;62725;-74
2023/09/05 01:55:40;;;;;;;8.80;5.90;;;;;;;15.83;100.00;101669.76;107347;1251;72209;-71
2023/09/05 01:58:10;;;;;;;10.20;6.00;;;;;;;15.82;100.00;101672.68;107428;1241;62921;-71
2023/09/05 02:00:38;;;;;;;8.60;6.80;;;;;;;15.78;100.00;101676.48;107359;1254;74267;-72
2023/09/05 02:03:07;;;;;;;10.00;6.70;;;;;;;15.74;100.00;101677.11;107387;1244;58975;-73
2023/09/05 02:05:36;;;;;;;9.40;5.80;;;;;;;15.73;100.00;101680.19;107388;1241;59069;-73
2023/09/05 02:08:05;;;;;;;9.10;6.10;;;;;;;15.71;100.00;101680.06;107457;1250;71614;-74
2023/09/05 02:10:34;;;;;;;10.30;7.00;;;;;;;15.67;100.00;101678.56;107417;1244;62986;-73
2023/09/05 02:13:03;;;;;;;10.70;6.60;;;;;;;15.65;100.00;101676.48;107534;1244;70331;-78
2023/09/05 02:15:32;;;;;;;10.40;6.00;;;;;;;15.61;100.00;101674.42;107494;1244;74019;-75
2023/09/05 02:18:02;;;;;;;8.50;6.00;;;;;;;15.57;100.00;101675.94;107429;1245;63220;-74
2023/09/05 02:20:31;;;;;;;9.10;6.40;;;;;;;15.54;100.00;101675.51;107454;1242;58901;-72
2023/09/05 02:23:00;;;;;;;14.20;7.20;;;;;;;15.53;100.00;101677.89;107466;1245;62648;-72
2023/09/05 02:25:29;;;;;;;10.40;7.30;;;;;;;15.51;100.00;101677.84;107404;1246;73069;-72
2023/09/05 02:27:58;;;;;;;8.90;6.30;;;;;;;15.49;100.00;101677.33;107351;1248;70652;-72
2023/09/05 02:30:27;;;;;;;11.10;6.60;;;;;;;15.47;100.00;101674.27;107436;1241;74247;-72
2023/09/05 02:32:56;;;;;;;9.80;6.30;;;;;;;15.47;100.00;101672.34;107427;1244;63084;-72
2023/09/05 02:35:27;;;;;;;9.20;6.10;;;;;;;15.47;100.00;101668.48;107470;1243;59152;-73
2023/09/05 02:37:56;;;;;;;8.90;6.40;;;;;;;15.46;100.00;101670.16;107417;1254;72919;-72
2023/09/05 02:40:24;;;;;;;8.40;5.70;;;;;;;15.45;100.00;101673.77;107265;1254;61300;-72
2023/09/05 02:42:53;;;;;;;9.30;6.10;;;;;;;15.43;100.00;101671.29;107450;1244;59782;-70
2023/09/05 02:45:22;;;;;;;10.30;6.00;;;;;;;15.42;100.00;101672.63;107322;1244;62327;-70
2023/09/05 02:47:51;;;;;;;10.90;6.10;;;;;;;15.40;100.00;101672.41;107399;1244;63332;-71
2023/09/05 02:50:19;;;;;;;8.30;5.60;;;;;;;15.39;100.00;101668.45;107363;1241;61655;-71
2023/09/05 02:52:48;;;;;;;11.80;6.20;;;;;;;15.40;100.00;101668.04;107326;1250;74863;-71
2023/09/05 02:55:17;;;;;;;8.20;5.80;;;;;;;15.40;100.00;101668.20;107219;1244;70857;-71
2023/09/05 02:57:46;;;;;;;11.40;6.20;;;;;;;15.37;100.00;101670.64;107161;1241;70012;-71
2023/09/05 03:00:19;;;;;;;8.90;6.10;;;;;;;15.36;100.00;101669.39;107156;1244;72856;-72
2023/09/05 03:02:49;;;;;;;7.50;5.60;;;;;;;15.34;100.00;101673.20;107167;1241;58788;-70
2023/09/05 03:05:18;;;;;;;13.80;5.70;;;;;;;15.33;100.00;101673.13;107152;1251;60362;-71
2023/09/05 03:07:48;;;;;;;10.00;5.20;;;;;;;15.30;100.00;101670.03;107096;1241;74147;-70
2023/09/05 03:10:17;;;;;;;8.40;5.50;;;;;;;15.27;100.00;101668.81;107072;1244;73596;-70
2023/09/05 03:12:46;;;;;;;9.20;5.20;;;;;;;15.27;100.00;101666.04;107347;1241;71825;-71
2023/09/05 03:15:18;;;;;;;10.10;5.40;;;;;;;15.27;100.00;101669.52;107331;1251;73177;-70
2023/09/05 03:17:47;;;;;;;7.60;5.20;;;;;;;15.26;100.00;101671.69;107234;1241;58788;-70
2023/09/05 03:20:18;;;;;;;7.60;5.60;;;;;;;15.26;100.00;101677.17;107311;1244;57429;-70
2023/09/05 03:22:47;;;;;;;11.90;5.50;;;;;;;15.25;100.00;101684.25;107309;1241;70830;-71
2023/09/05 03:25:16;;;;;;;10.40;5.40;;;;;;;15.26;100.00;101682.24;107433;1241;71821;-72
2023/09/05 03:27:44;;;;;;;7.20;5.40;;;;;;;15.25;100.00;101681.98;107339;1245;70751;-72
2023/09/05 03:30:13;;;;;;;10.00;5.10;;;;;;;15.24;100.00;101683.78;107420;1242;73527;-71
2023/09/05 03:32:43;;;;;;;7.40;5.00;;;;;;;15.22;100.00;101694.63;107435;1249;62756;-71
2023/09/05 03:35:12;;;;;;;8.10;5.30;;;;;;;15.18;100.00;101698.47;107185;1245;61095;-70
2023/09/05 03:37:40;;;;;;;8.20;5.80;;;;;;;15.15;100.00;101699.23;107387;1241;74239;-70
2023/09/05 03:40:10;;;;;;;9.10;5.70;;;;;;;15.14;100.00;101700.38;107326;1241;72233;-71
2023/09/05 03:42:40;;;;;;;8.60;5.20;;;;;;;15.11;100.00;101699.00;107356;1254;60083;-71
2023/09/05 03:45:10;;;;;;;9.90;5.20;;;;;;;15.06;100.00;101698.33;107320;1245;63026;-74
2023/09/05 03:47:38;;;;;;;10.90;5.70;;;;;;;15.06;100.00;101700.77;107179;1246;62067;-71
2023/09/05 03:50:27;;;;;;;7.80;6.10;;;;;;;15.02;100.00;101702.19;107220;1245;59214;-71
2023/09/05 03:52:56;;;;;;;12.50;6.30;;;;;;;14.98;100.00;101702.46;107322;1244;62999;-72
2023/09/05 03:55:25;;;;;;;9.30;5.60;;;;;;;14.96;100.00;101700.48;107434;1255;61505;-71
2023/09/05 03:57:54;;;;;;;7.30;5.60;;;;;;;14.93;100.00;101705.63;107197;1255;59565;-71
2023/09/05 04:00:23;;;;;;;7.20;5.70;;;;;;;14.93;100.00;101710.91;107371;1245;63135;-71
2023/09/05 04:02:52;;;;;;;10.80;5.50;;;;;;;14.93;100.00;101712.81;107294;1241;62981;-71
2023/09/05 04:05:22;;;;;;;8.60;5.80;;;;;;;14.99;100.00;101716.38;107444;1254;57987;-72
2023/09/05 04:07:51;;;;;;;11.10;5.70;;;;;;;15.03;100.00;101721.02;107335;1245;62758;-71
2023/09/05 04:10:20;;;;;;;8.70;5.00;;;;;;;15.05;100.00;101720.83;107406;1244;71418;-72
2023/09/05 04:12:50;;;;;;;9.20;5.30;;;;;;;15.05;100.00;101724.56;107131;1242;70763;-72
2023/09/05 04:15:23;;;;;;;8.10;5.50;;;;;;;15.07;100.00;101725.95;107314;1241;62991;-72
2023/09/05 04:17:52;;;;;;;7.90;4.80;;;;;;;15.10;100.00;101736.64;107268;1254;62791;-71
2023/09/05 04:20:21;;;;;;;5.90;4.60;;;;;;;15.13;100.00;101736.95;107337;1241;58730;-70
2023/09/05 04:22:50;;;;;;;10.10;5.30;;;;;;;15.14;100.00;101736.52;107340;1245;72655;-70
2023/09/05 04:25:19;;;;;;;9.90;5.50;;;;;;;15.16;100.00;101737.56;107337;1244;61615;-70
2023/09/05 04:27:50;;;;;;;7.60;5.20;;;;;;;15.18;100.00;101740.96;107215;1246;60263;-70
2023/09/05 04:30:20;;;;;;;10.00;5.50;;;;;;;15.23;100.00;101739.90;107184;1244;73021;-70
2023/09/05 04:32:50;;;;;;;6.20;4.60;;;;;;;15.25;100.00;101742.17;107201;1244;58887;-70
2023/09/05 04:35:19;;;;;;;12.40;4.90;;;;;;;15.27;100.00;101747.60;107281;1244;58990;-70
2023/09/05 04:37:52;;;;;;;10.80;5.20;;;;;;;15.30;100.00;101744.79;107374;1254;62530;-70
2023/09/05 04:40:22;;;;;;;8.90;5.00;;;;;;;15.34;100.00;101748.98;107390;1251;61571;-68
2023/09/05 04:42:51;;;;;;;7.90;5.40;;;;;;;15.39;100.00;101752.19;107369;1241;69758;-68
2023/09/05 04:45:20;;;;;;;6.20;4.20;;;;;;;15.41;100.00;101753.73;107340;1250;65062;-72
2023/09/05 04:47:49;;;;;;;7.70;4.60;;;;;;;15.47;100.00;101762.10;107375;1244;62776;-71
2023/09/05 04:50:18;;;;;;;7.90;4.90;;;;;;;15.52;100.00;101769.02;107406;1245;60838;-70
2023/09/05 04:52:47;;;;;;;7.30;4.60;;;;;;;15.59;100.00;101777.67;107413;1244;62897;-72
2023/09/05 04:55:16;;;;;;;7.50;4.70;;;;;;;15.64;100.00;101781.02;107395;1244;62386;-71
2023/09/05 04:57:47;;;;;;;6.40;4.00;;;;;;;15.70;100.00;101782.45;107397;1254;59086;-69
2023/09/05 05:00:18;;;;;;;7.50;4.40;;;;;;;15.76;100.00;101779.77;107303;1241;73960;-74
2023/09/05 05:02:47;;;;;;;9.60;5.00;;;;;;;15.83;100.00;101777.80;107705;1242;59295;-82
2023/09/05 05:05:16;;;;;;;7.80;4.40;;;;;;;15.97;100.00;101780.03;107500;1252;60366;-74
2023/09/05 05:07:45;;;;;;;9.00;5.00;;;;;;;15.98;100.00;101783.27;107436;1245;73297;-76
2023/09/05 05:10:14;;;;;;;6.40;4.50;;;;;;;16.02;100.00;101783.00;107421;1244;61786;-75
2023/09/05 05:12:43;;;;;;;5.40;3.90;;;;;;;16.06;100.00;101783.84;107413;1241;70489;-74
2023/09/05 05:15:11;;;;;;;7.60;4.80;;;;;;;16.07;100.00;101784.30;107333;1241;73384;-74
2023/09/05 05:17:40;;;;;;;7.70;4.40;;;;;;;16.12;100.00;101782.85;107281;1244;59099;-73
2023/09/05 05:20:10;;;;;;;6.00;3.80;;;;;;;16.18;100.00;101784.02;107404;1242;57477;-73
2023/09/05 05:22:39;;;;;;;6.90;4.50;;;;;;;16.22;100.00;101787.04;107396;1245;73661;-73
2023/09/05 05:25:13;;;;;;;5.70;4.10;;;;;;;16.24;100.00;101786.01;107449;1248;71488;-75
2023/09/05 05:27:42;;;;;;;6.90;4.20;;;;;;;16.29;100.00;101788.04;107379;1245;60414;-73
2023/09/05 05:30:12;;;;;;;5.50;4.10;;;;;;;16.35;100.00;101793.20;107399;1243;62286;-74
2023/09/05 05:32:41;;;;;;;9.70;4.10;;;;;;;16.37;100.00;101793.15;107421;1242;61662;-74
2023/09/05 05:35:10;;;;;;;6.50;3.70;;;;;;;16.43;100.00;101792.52;107339;1245;60664;-74
2023/09/05 05:37:38;;;;;;;5.60;4.00;;;;;;;16.43;100.00;101787.02;107386;1245;64762;-75
2023/09/05 05:40:11;;;;;;;6.50;4.10;;;;;;;16.48;100.00;101786.52;107449;1253;61586;-86
2023/09/05 05:42:40;;;;;;;6.70;4.30;;;;;;;16.55;100.00;101785.61;107510;1244;69743;-74
2023/09/05 05:45:10;;;;;;;7.70;4.60;;;;;;;16.60;100.00;101788.54;107372;1253;75321;-77
2023/09/05 05:47:39;;;;;;;7.00;4.60;;;;;;;16.67;100.00;101789.38;107510;1250;64184;-71
2023/09/05 05:50:09;;;;;;;6.70;4.30;;;;;;;16.72;100.00;101793.24;107437;1244;61312;-72
2023/09/05 05:52:39;;;;;;;6.00;4.40;;;;;;;16.78;100.00;101793.26;107479;1253;62808;-78
2023/09/05 05:55:09;;;;;;;7.10;4.20;;;;;;;16.87;100.00;101790.37;107441;1247;72067;-84
2023/09/05 05:57:38;;;;;;;7.50;4.30;;;;;;;16.96;100.00;101793.88;107498;1244;60149;-82
2023/09/05 06:00:07;;;;;;;7.50;4.10;;;;;;;17.03;100.00;101796.30;107475;1246;73822;-81
2023/09/05 06:02:42;;;;;;;8.90;4.80;;;;;;;17.06;100.00;101791.81;107522;1245;58986;-81
2023/09/05 06:05:11;;;;;;;6.90;4.20;;;;;;;17.17;100.00;101787.36;107483;1245;57542;-80
2023/09/05 06:07:40;;;;;;;7.40;4.00;;;;;;;17.26;100.00;101789.98;107526;1251;63960;-81
2023/09/05 06:10:09;;;;;;;9.30;4.90;;;;;;;17.34;100.00;101790.91;107505;1245;60807;-81
2023/09/05 06:12:38;;;;;;;9.50;4.20;;;;;;;17.40;100.00;101790.58;107544;1245;58981;-82
2023/09/05 06:15:08;;;;;;;7.40;3.30;;;;;;;17.44;100.00;101789.73;107526;1251;63211;-80
2023/09/05 06:17:37;;;;;;;6.00;3.90;;;;;;;17.48;100.00;101792.72;107607;1244;58278;-78
2023/09/05 06:20:09;;;;;;;6.40;3.80;;;;;;;17.53;100.00;101788.74;107508;1243;57483;-79
2023/09/05 06:22:39;;;;;;;7.10;3.80;;;;;;;17.55;100.00;101791.98;107580;1241;62899;-79
2023/09/05 06:25:08;;;;;;;6.80;4.30;;;;;;;17.58;100.00;101791.50;107515;1253;72178;-79
2023/09/05 06:27:38;;;;;;;7.20;3.70;;;;;;;17.70;100.00;101792.97;107496;1241;71808;-79
2023/09/05 06:30:08;;;;;;;6.50;4.10;;;;;;;17.78;100.00;101793.34;107322;1253;63887;-79
2023/09/05 06:32:37;;;;;;;8.70;3.90;;;;;;;17.85;100.00;101786.11;107406;1242;58774;-80
2023/09/05 06:35:07;;;;;;;5.80;3.80;;;;;;;17.84;100.00;101780.32;107514;1244;59077;-77
2023/09/05 06:37:38;;;;;;;6.50;3.60;;;;;;;17.89;100.00;101788.19;107618;1241;73443;-78
2023/09/05 06:40:12;;;;;;;10.60;4.10;;;;;;;17.93;100.00;101787.98;107472;1254;62153;-77
2023/09/05 06:42:42;;;;;;;5.30;3.60;;;;;;;18.00;100.00;101789.66;107448;1253;58993;-77
2023/09/05 06:45:11;;;;;;;6.70;4.10;;;;;;;18.12;100.00;101794.46;107499;1244;62487;-78
2023/09/05 06:47:40;;;;;;;7.80;4.40;;;;;;;18.20;100.00;101801.34;107403;1244;59130;-77
2023/09/05 06:50:10;;;;;;;7.50;4.10;;;;;;;18.24;100.00;101801.38;107425;1244;59131;-77
2023/09/05 06:52:39;;;;;;;5.00;3.80;;;;;;;18.34;100.00;101798.17;107497;1253;72697;-77
2023/09/05 06:55:09;;;;;;;9.00;3.90;;;;;;;18.41;100.00;101797.09;107443;1253;63386;-77
2023/09/05 06:57:38;;;;;;;7.10;4.10;;;;;;;18.47;100.00;101795.77;107544;1245;69707;-76
2023/09/05 07:00:08;;;;;;;7.40;3.60;;;;;;;18.46;100.00;101791.66;107451;1246;74018;-77
2023/09/05 07:02:37;;;;;;;6.10;4.30;;;;;;;18.57;100.00;101799.69;107401;1241;61546;-77
2023/09/05 07:05:06;;;;;;;9.80;4.70;;;;;;;18.58;100.00;101787.04;107457;1251;61600;-77
2023/09/05 07:07:36;;;;;;;7.70;4.10;;;;;;;18.69;100.00;101796.15;107519;1245;63815;-77
2023/09/05 07:10:05;;;;;;;7.30;3.50;;;;;;;18.61;100.00;101785.56;107452;1244;71366;-77
2023/09/05 07:12:34;;;;;;;9.80;4.10;;;;;;;18.80;100.00;101795.88;107470;1244;59698;-77
2023/09/05 07:15:04;;;;;;;6.50;3.70;;;;;;;18.87;100.00;101790.15;107467;1242;63163;-79
2023/09/05 07:17:33;;;;;;;5.60;4.00;;;;;;;18.89;100.00;101791.69;107505;1243;62725;-81
2023/09/05 07:20:02;;;;;;;7.00;3.90;;;;;;;18.96;100.00;101790.55;107479;1248;60847;-81
2023/09/05 07:22:31;;;;;;;6.20;4.00;;;;;;;19.09;100.00;101794.80;107501;1245;73944;-79
2023/09/05 07:24:59;;;;;;;5.70;3.90;;;;;;;19.14;100.00;101798.80;107419;1244;71580;-80
2023/09/05 07:27:28;;;;;;;13.90;4.10;;;;;;;19.18;100.00;101790.80;107538;1241;69972;-79
2023/09/05 07:29:57;;;;;;;5.90;3.70;;;;;;;19.30;100.00;101787.39;107420;1245;73805;-78
2023/09/05 07:32:26;;;;;;;7.50;3.50;;;;;;;19.37;100.00;101786.39;107440;1247;59054;-79
2023/09/05 07:34:55;;;;;;;6.00;3.70;;;;;;;19.46;100.00;101780.95;107382;1244;59094;-79
2023/09/05 07:37:24;;;;;;;8.80;3.60;;;;;;;19.55;100.00;101780.70;107464;1240;73469;-80
2023/09/05 07:39:53;;;;;;;5.20;3.80;;;;;;;19.65;100.00;101777.63;107413;1245;70199;-80
2023/09/05 07:42:21;;;;;;;8.80;4.10;;;;;;;19.71;100.00;101781.30;107395;1245;70499;-84
2023/09/05 07:44:51;;;;;;;10.10;4.30;;;;;;;19.75;100.00;101779.30;107441;1244;63974;-79
2023/09/05 07:47:20;;;;;;;8.70;3.50;;;;;;;19.88;100.00;101778.67;107341;1241;60414;-78
2023/09/05 07:49:49;;;;;;;7.60;4.00;;;;;;;19.96;100.00;101786.88;107309;1247;61188;-79
2023/09/05 07:52:17;;;;;;;6.10;4.20;;;;;;;19.97;100.00;101786.11;107336;1245;73083;-80
2023/09/05 07:54:46;;;;;;;14.30;4.10;;;;;;;20.07;100.00;101781.55;107262;1241;72091;-79
2023/09/05 07:57:17;;;;;;;4.90;3.30;;;;;;;20.19;100.00;101779.59;107337;1245;60037;-82
2023/09/05 07:59:46;;;;;;;7.30;3.70;;;;;;;20.27;100.00;101776.00;107344;1253;73787;-81
2023/09/05 08:02:14;;;;;;;6.20;3.70;;;;;;;20.34;100.00;101780.23;107445;1245;61447;-81
2023/09/05 08:04:46;;;;;;;7.30;3.40;;;;;;;20.46;100.00;101781.75;107438;1244;59051;-79
2023/09/05 08:07:17;;;;;;;8.30;3.60;;;;;;;20.61;100.00;101775.90;107168;1247;62829;-79
2023/09/05 08:09:47;;;;;;;5.70;3.20;;;;;;;20.77;100.00;101774.21;107341;1245;72072;-79
2023/09/05 08:12:17;;;;;;;8.10;3.50;;;;;;;20.85;100.00;101776.24;107372;1243;70738;-79
2023/09/05 08:14:46;;;;;;;6.00;3.50;;;;;;;20.95;100.00;101769.54;107311;1245;74313;-79
2023/09/05 08:17:15;;;;;;;5.70;3.30;;;;;;;21.03;100.00;101767.10;107406;1245;59101;-79
2023/09/05 08:19:45;;;;;;;4.40;3.30;;;;;;;21.18;100.00;101765.15;107416;1244;58722;-79
2023/09/05 08:22:14;;;;;;;6.50;3.70;;;;;;;21.28;100.00;101763.88;107445;1241;72405;-81
2023/09/05 08:24:43;;;;;;;5.90;3.10;;;;;;;21.24;100.00;101762.45;107473;1253;61907;-79
2023/09/05 08:27:13;;;;;;;5.50;3.10;;;;;;;21.37;100.00;101753.32;107303;1253;59188;-79
2023/09/05 08:29:42;;;;;;;5.30;3.00;;;;;;;21.58;100.00;101758.70;107327;1245;62367;-79
2023/09/05 08:32:11;;;;;;;7.30;3.30;;;;;;;21.76;100.00;101748.88;107246;1241;59020;-79
2023/09/05 08:34:40;;;;;;;6.10;3.40;;;;;;;21.81;100.00;101751.91;107368;1244;61503;-78
2023/09/05 08:37:09;;;;;;;5.30;3.00;;;;;;;21.96;100.00;101751.19;107374;1253;62560;-78
2023/09/05 08:39:38;;;;;;;5.10;3.10;;;;;;;22.03;100.00;101744.13;107325;1244;62028;-79
2023/09/05 08:42:09;;;;;;;4.20;3.10;;;;;;;22.06;100.00;101737.79;107297;1242;61504;-79
2023/09/05 08:44:43;;;;;;;6.10;2.80;;;;;;;22.07;100.00;101738.30;107344;1241;72996;-78
2023/09/05 08:47:11;;;;;;;7.40;3.00;;;;;;;22.16;100.00;101734.95;107282;1244;62688;-79
2023/09/05 08:49:40;;;;;;;7.60;3.00;;;;;;;22.33;100.00;101728.88;107231;1245;59109;-78
2023/09/05 08:52:12;;;;;;;5.10;2.90;;;;;;;22.39;100.00;101728.59;107183;1245;62847;-79
2023/09/05 08:54:42;;;;;;;6.00;2.80;;;;;;;22.46;100.00;101734.56;107259;1247;72247;-78
2023/09/05 08:57:13;;;;;;;4.00;2.50;;;;;;;22.62;99.84;101736.21;107251;1241;71251;-79
2023/09/05 08:59:42;;;;;;;5.50;2.80;;;;;;;22.69;99.18;101739.21;107206;1244;62922;-79
2023/09/05 09:02:17;;;;;;;6.10;2.80;;;;;;;22.73;96.81;101736.42;107236;1242;59101;-79
2023/09/05 09:04:55;;;;;;;5.40;3.00;;;;;;;22.77;94.04;101733.55;107297;1244;58892;-79
2023/09/05 09:07:27;;;;;;;6.40;2.70;;;;;;;22.77;93.11;101734.05;107237;1253;62039;-79
2023/09/05 09:09:58;;;;;;;4.30;2.30;;;;;;;22.83;92.45;101730.73;107161;1247;71698;-79
2023/09/05 09:12:31;;;;;;;5.30;2.60;;;;;;;23.04;92.06;101725.29;107288;1253;70271;-81
2023/09/05 09:15:14;;;;;;;4.70;2.40;;;;;;;23.17;90.01;101717.88;107257;1244;62723;-74
2023/09/05 09:17:49;;;;;;;4.60;2.90;;;;;;;23.30;88.51;101720.70;107229;1245;61306;-74
2023/09/05 09:20:19;;;;;;;5.40;2.60;;;;;;;23.28;87.07;101721.79;107144;1246;58987;-74
2023/09/05 09:22:52;;;;;;;6.10;2.40;;;;;;;23.38;86.70;101716.70;107143;1241;64080;-74
2023/09/05 09:25:22;;;;;;;4.50;2.50;;;;;;;23.60;86.03;101716.75;107145;1245;61572;-73
2023/09/05 09:27:57;;;;;;;4.30;2.30;;;;;;;23.70;84.80;101712.80;107139;1251;59030;-74
2023/09/05 09:30:30;;;;;;;4.80;2.40;;;;;;;23.81;85.11;101713.44;107249;1245;62405;-77
2023/09/05 09:33:00;;;;;;;3.90;2.40;;;;;;;23.83;82.29;101717.91;107253;1244;60225;-75
2023/09/05 09:35:34;;;;;;;3.60;2.60;;;;;;;23.82;81.39;101718.09;107403;1243;61222;-75
2023/09/05 09:38:04;;;;;;;6.80;2.60;;;;;;;23.99;82.44;101719.14;107400;1244;73130;-74
2023/09/05 09:40:36;;;;;;;5.20;2.30;;;;;;;24.15;80.83;101725.14;107403;1245;61469;-82
2023/09/05 09:43:08;;;;;;;3.90;2.10;;;;;;;23.99;80.64;101719.51;107481;1254;58993;-76
2023/09/05 09:45:37;;;;;;;6.10;2.10;;;;;;;23.98;79.81;101722.61;107533;1241;73753;-75
2023/09/05 09:48:09;;;;;;;5.60;2.50;;;;;;;24.03;79.73;101719.95;107479;1250;61448;-75
2023/09/05 09:50:39;;;;;;;5.20;2.40;;;;;;;24.20;79.66;101714.72;107501;1242;59884;-76
2023/09/05 09:53:11;;;;;;;6.60;3.10;;;;;;;24.45;78.40;101712.21;107381;1253;73658;-75
2023/09/05 09:55:43;;;;;;;;;;;;;;;24.80;78.11;101709.58;107383;1244;61094;-75
2023/09/05 09:58:18;;;;;;;4.30;2.20;;;;;;;24.82;75.69;101716.47;107465;1245;60052;-76
2023/09/05 10:00:49;;;;;;;5.00;2.40;;;;;;;24.27;76.71;101710.17;107516;1242;73089;-73
2023/09/05 10:03:20;;;;;;;4.00;2.60;;;;;;;24.23;79.12;101704.13;107383;1253;61809;-73
2023/09/05 10:05:49;;;;;;;6.60;2.30;;;;;;;24.38;77.79;101698.17;107526;1244;59290;-73
2023/09/05 10:08:21;;;;;;;6.60;2.50;;;;;;;24.46;77.30;101691.81;107456;1247;62804;-73
2023/09/05 10:10:51;;;;;;;4.40;2.30;;;;;;;24.89;77.09;101687.97;107523;1244;72170;-73
2023/09/05 10:13:24;;;;;;;4.10;2.40;;;;;;;24.85;74.10;101689.93;107495;1249;71091;-73
2023/09/05 10:15:56;;;;;;;4.50;2.60;;;;;;;24.48;73.82;101688.39;107513;1251;62394;-74
2023/09/05 10:18:26;;;;;;;3.60;2.20;;;;;;;24.39;74.86;101684.29;107438;1244;59129;-74
2023/09/05 10:20:58;;;;;;;8.10;2.50;;;;;;;24.60;75.15;101681.45;107363;1245;61169;-76
2023/09/05 10:23:33;;;;;;;5.10;2.80;;;;;;;24.94;74.72;101678.30;107353;1251;73856;-75
2023/09/05 10:26:03;;;;;;;5.90;2.70;;;;;;;25.21;72.43;101681.45;107449;1241;63379;-74
2023/09/05 10:28:33;;;;;;;6.20;2.40;;;;;;;25.29;72.19;101684.17;107440;1245;71030;-74
2023/09/05 10:31:15;;;;;;;3.30;2.50;;;;;;;24.85;72.01;101685.48;107443;1242;74235;-74
2023/09/05 10:33:45;;;;;;;3.90;2.50;;;;;;;25.14;70.91;101684.19;107286;1253;61603;-73
2023/09/05 10:36:41;;;;;;;4.00;2.60;;;;;;;25.38;68.28;101681.73;107117;1247;59170;-73
2023/09/05 10:39:18;;;;;;;6.70;2.90;;;;;;;25.67;66.45;101678.05;107413;1244;62933;-79
2023/09/05 10:41:47;;;;;;;3.00;2.30;;;;;;;26.12;65.43;101673.75;107460;1244;70321;-77
2023/09/05 10:44:16;;;;;;;4.70;2.10;;;;;;;26.57;63.85;101675.24;107359;1249;60346;-75
2023/09/05 10:46:55;;;;;;;8.40;2.30;;;;;;;26.97;62.48;101677.77;107318;1245;62433;-76
2023/09/05 10:49:24;;;;;;;3.40;2.10;;;;;;;27.04;61.44;101676.38;107317;1244;59222;-75
2023/09/05 10:52:15;;;;;;;4.00;2.10;;;;;;;27.41;62.41;101675.42;107391;1242;58987;-76
2023/09/05 10:54:43;;;;;;;4.80;2.40;;;;;;;27.63;59.72;101675.59;107351;1253;72613;-75
2023/09/05 10:57:39;;;;;;;5.80;2.30;;;;;;;26.89;61.68;101675.52;107291;1253;62098;-74
2023/09/05 11:00:20;;;;;;;3.70;2.30;;;;;;;26.53;62.62;101677.58;107274;1244;59798;-74
2023/09/05 11:02:50;;;;;;;3.90;2.30;;;;;;;26.38;61.71;101671.20;107276;1245;73100;-74
2023/09/05 11:05:20;;;;;;;3.00;2.20;;;;;;;26.89;61.56;101673.26;107229;1244;59071;-75
2023/09/05 11:07:54;;;;;;;3.20;2.40;;;;;;;26.91;61.04;101675.79;107370;1244;59129;-75
2023/09/05 11:10:33;;;;;;;3.80;2.50;;;;;;;26.14;63.73;101671.27;107271;1253;61997;-74
2023/09/05 11:13:11;;;;;;;4.20;2.40;;;;;;;26.12;64.49;101672.42;107318;1245;62215;-72
2023/09/05 11:15:44;;;;;;;4.00;2.20;;;;;;;26.46;63.39;101674.30;107302;1244;60514;-74
2023/09/05 11:18:15;;;;;;;3.50;2.70;;;;;;;26.76;61.61;101670.18;107248;1243;73795;-74
2023/09/05 11:20:46;;;;;;;3.40;2.20;;;;;;;26.97;60.02;101661.31;107260;1245;59114;-73
2023/09/05 11:23:21;;;;;;;3.70;2.40;;;;;;;27.26;58.18;101658.75;107171;1243;57403;-77
2023/09/05 11:25:56;;;;;;;3.70;2.30;;;;;;;27.46;57.44;101659.63;107210;1251;63172;-77